Glendive, MT (59330)

1:18 AM MDT on September 05, 2015 (GMT -0600)
APRSWXNET | | Change Station
CLOSE
Current Station
Personal Weather Station
Location: Glendive, MT
Elevation: 2208 ft
Nearby Weather Stations

Elev 2208 ft 47.04 °N, 104.80 °W | Updated 63 days ago

Partly Cloudy
Partly Cloudy
57 °F
Feels Like 57 °F
N
15
Wind Variable Wind from NE
Gusts 22 mph

Today
High -- | Low -- °F
--% Chance of Precip.
Yesterday
High -- | Low -- °F
Precip. -- in
6:23 AM 7:31 PM
Waning Gibbous, 51% visible
Pressure 29.85 in
Visibility 10.0 miles
Clouds Scattered Clouds 500 ft
Scattered Clouds 3200 ft
Dew Point 57 °F
Humidity 100%
Rainfall in
Snow Depth Not available.
UV 0 out of 12
Pollen 9.10 out of 12
Air Quality Not available.
Flu Activity Not available.
METAR KGDV 050715Z AUTO 01015G20KT 10SM SCT005 SCT032 16/16 A2985 RMK AO1 LTG DSNT E
Pressure 29.85 in
Visibility 10.0 miles
Clouds Scattered Clouds 500 ft
Scattered Clouds 3200 ft
Dew Point 57 °F
Humidity 100%
Rainfall in
Snow Depth Not available.
UV 0 out of 12
Pollen 9.10 out of 12
Air Quality Not available.
Flu Activity Not available.
METAR KGDV 050715Z AUTO 01015G20KT 10SM SCT005 SCT032 16/16 A2985 RMK AO1 LTG DSNT E

10-Day Weather Forecast

×

Almanac

Astronomy

Sep. 05, 2015 Rise Set
Actual Time
Civil Twilight
Nautical Twilight
Astronomical Twilight
Moon
Length of Visible Light
Length of Day
Tomorrow will be .
, % of the Moon is Illuminated

Today's Extremes

State Highs State Lows

Community

WunderPhotos

Upload Photos

1,852,430 photos uploaded!

WunderBlogs® & News

Nearby

Air Quality

  Air Quality AQ Index Pollutant
Not available.

Snow Depth

Station Depth Elevation

Earthquake Activity

City Distance Mag. Time & Date
Minimum magnitude displayed is 2.5.

Coastal Water Temperatures

Place Temperature

Stations

Nearby Weather Stations

Station Location Temp. Windchill Dew Point Humidity Wind Precip. Elev Updated Type